sensor_id;sensor_type;location;lat;lon;timestamp;P1;durP1;ratioP1;P2;durP2;ratioP2
21402;SDS011;10862;51.886;17.078;2023-02-28T00:00:17;60.93;;;29.13;;
21402;SDS011;10862;51.886;17.078;2023-02-28T00:02:44;42.40;;;26.33;;
21402;SDS011;10862;51.886;17.078;2023-02-28T00:05:11;48.60;;;27.50;;
21402;SDS011;10862;51.886;17.078;2023-02-28T00:07:38;38.80;;;29.23;;
21402;SDS011;10862;51.886;17.078;2023-02-28T00:10:05;46.13;;;34.47;;
21402;SDS011;10862;51.886;17.078;2023-02-28T00:12:32;39.23;;;28.90;;
21402;SDS011;10862;51.886;17.078;2023-02-28T00:14:59;35.93;;;26.43;;
21402;SDS011;10862;51.886;17.078;2023-02-28T00:17:25;38.43;;;27.57;;
21402;SDS011;10862;51.886;17.078;2023-02-28T00:19:51;34.97;;;28.47;;
21402;SDS011;10862;51.886;17.078;2023-02-28T00:22:17;35.77;;;28.47;;
21402;SDS011;10862;51.886;17.078;2023-02-28T00:24:44;34.23;;;28.17;;
21402;SDS011;10862;51.886;17.078;2023-02-28T00:27:10;31.23;;;24.60;;
21402;SDS011;10862;51.886;17.078;2023-02-28T00:29:36;41.73;;;30.07;;
21402;SDS011;10862;51.886;17.078;2023-02-28T00:32:02;53.47;;;38.13;;
21402;SDS011;10862;51.886;17.078;2023-02-28T00:34:29;32.47;;;21.97;;
21402;SDS011;10862;51.886;17.078;2023-02-28T00:36:55;90.17;;;30.53;;
21402;SDS011;10862;51.886;17.078;2023-02-28T00:39:21;30.73;;;22.00;;
21402;SDS011;10862;51.886;17.078;2023-02-28T00:41:47;35.97;;;25.37;;
21402;SDS011;10862;51.886;17.078;2023-02-28T00:44:12;38.37;;;27.87;;
21402;SDS011;10862;51.886;17.078;2023-02-28T00:46:38;37.23;;;27.47;;
21402;SDS011;10862;51.886;17.078;2023-02-28T00:49:04;42.80;;;21.87;;
21402;SDS011;10862;51.886;17.078;2023-02-28T00:51:30;60.30;;;32.87;;
21402;SDS011;10862;51.886;17.078;2023-02-28T00:53:55;52.03;;;29.00;;
21402;SDS011;10862;51.886;17.078;2023-02-28T00:56:21;32.77;;;19.93;;
21402;SDS011;10862;51.886;17.078;2023-02-28T00:58:47;40.80;;;18.97;;
21402;SDS011;10862;51.886;17.078;2023-02-28T01:01:12;52.10;;;29.20;;
21402;SDS011;10862;51.886;17.078;2023-02-28T01:03:38;41.23;;;23.67;;
21402;SDS011;10862;51.886;17.078;2023-02-28T01:06:04;68.20;;;33.27;;
21402;SDS011;10862;51.886;17.078;2023-02-28T01:08:30;48.60;;;26.30;;
21402;SDS011;10862;51.886;17.078;2023-02-28T01:10:55;41.63;;;23.57;;
21402;SDS011;10862;51.886;17.078;2023-02-28T01:13:21;35.63;;;20.80;;
21402;SDS011;10862;51.886;17.078;2023-02-28T01:15:52;31.37;;;22.97;;
21402;SDS011;10862;51.886;17.078;2023-02-28T01:18:19;28.63;;;20.00;;
21402;SDS011;10862;51.886;17.078;2023-02-28T01:20:46;37.57;;;20.00;;
21402;SDS011;10862;51.886;17.078;2023-02-28T01:23:12;33.63;;;20.80;;
21402;SDS011;10862;51.886;17.078;2023-02-28T01:25:38;50.60;;;28.50;;
21402;SDS011;10862;51.886;17.078;2023-02-28T01:28:05;46.47;;;24.27;;
21402;SDS011;10862;51.886;17.078;2023-02-28T01:30:31;47.93;;;23.50;;
21402;SDS011;10862;51.886;17.078;2023-02-28T01:32:57;40.47;;;24.40;;
21402;SDS011;10862;51.886;17.078;2023-02-28T01:35:23;50.33;;;31.73;;
21402;SDS011;10862;51.886;17.078;2023-02-28T01:37:49;39.40;;;27.17;;
21402;SDS011;10862;51.886;17.078;2023-02-28T01:40:15;35.13;;;28.43;;
21402;SDS011;10862;51.886;17.078;2023-02-28T01:42:40;33.60;;;25.43;;
21402;SDS011;10862;51.886;17.078;2023-02-28T01:48:00;36.27;;;25.37;;
21402;SDS011;10862;51.886;17.078;2023-02-28T01:50:31;32.47;;;25.10;;
21402;SDS011;10862;51.886;17.078;2023-02-28T01:53:04;30.93;;;26.37;;
21402;SDS011;10862;51.886;17.078;2023-02-28T01:55:32;33.30;;;23.13;;
21402;SDS011;10862;51.886;17.078;2023-02-28T01:57:59;28.53;;;21.83;;
21402;SDS011;10862;51.886;17.078;2023-02-28T02:00:27;30.93;;;23.13;;
21402;SDS011;10862;51.886;17.078;2023-02-28T02:02:58;32.67;;;24.57;;
21402;SDS011;10862;51.886;17.078;2023-02-28T02:05:30;42.57;;;25.33;;
21402;SDS011;10862;51.886;17.078;2023-02-28T02:08:12;45.43;;;26.03;;
21402;SDS011;10862;51.886;17.078;2023-02-28T02:10:51;33.57;;;21.17;;
21402;SDS011;10862;51.886;17.078;2023-02-28T02:16:00;35.80;;;22.30;;
21402;SDS011;10862;51.886;17.078;2023-02-28T02:31:56;27.67;;;25.20;;
21402;SDS011;10862;51.886;17.078;2023-02-28T02:35:10;29.87;;;24.20;;
21402;SDS011;10862;51.886;17.078;2023-02-28T02:37:50;28.53;;;25.83;;
21402;SDS011;10862;51.886;17.078;2023-02-28T02:40:41;27.07;;;24.53;;
21402;SDS011;10862;51.886;17.078;2023-02-28T02:48:54;24.00;;;21.27;;
21402;SDS011;10862;51.886;17.078;2023-02-28T02:51:23;26.83;;;18.80;;
21402;SDS011;10862;51.886;17.078;2023-02-28T02:54:03;18.47;;;12.07;;
21402;SDS011;10862;51.886;17.078;2023-02-28T02:56:33;21.63;;;14.30;;
21402;SDS011;10862;51.886;17.078;2023-02-28T02:59:04;23.60;;;14.90;;
21402;SDS011;10862;51.886;17.078;2023-02-28T03:01:34;27.50;;;14.47;;
21402;SDS011;10862;51.886;17.078;2023-02-28T03:04:03;31.53;;;15.37;;
21402;SDS011;10862;51.886;17.078;2023-02-28T03:06:32;27.37;;;16.10;;
21402;SDS011;10862;51.886;17.078;2023-02-28T03:08:59;24.40;;;16.40;;
21402;SDS011;10862;51.886;17.078;2023-02-28T03:11:25;23.50;;;14.70;;
21402;SDS011;10862;51.886;17.078;2023-02-28T03:19:11;25.37;;;14.37;;
21402;SDS011;10862;51.886;17.078;2023-02-28T03:21:56;23.07;;;14.40;;
21402;SDS011;10862;51.886;17.078;2023-02-28T03:27:23;48.70;;;18.40;;
21402;SDS011;10862;51.886;17.078;2023-02-28T03:29:51;35.30;;;16.93;;
21402;SDS011;10862;51.886;17.078;2023-02-28T03:32:38;37.93;;;17.33;;
21402;SDS011;10862;51.886;17.078;2023-02-28T03:35:21;29.13;;;16.87;;
21402;SDS011;10862;51.886;17.078;2023-02-28T03:38:06;27.63;;;15.03;;
21402;SDS011;10862;51.886;17.078;2023-02-28T03:40:56;30.57;;;16.57;;
21402;SDS011;10862;51.886;17.078;2023-02-28T03:43:31;31.47;;;25.40;;
21402;SDS011;10862;51.886;17.078;2023-02-28T03:46:01;43.07;;;27.90;;
21402;SDS011;10862;51.886;17.078;2023-02-28T03:48:34;56.00;;;28.43;;
21402;SDS011;10862;51.886;17.078;2023-02-28T03:51:05;41.03;;;25.97;;
21402;SDS011;10862;51.886;17.078;2023-02-28T03:53:36;37.57;;;24.50;;
21402;SDS011;10862;51.886;17.078;2023-02-28T03:58:55;37.10;;;24.70;;
21402;SDS011;10862;51.886;17.078;2023-02-28T04:01:36;35.27;;;20.07;;
21402;SDS011;10862;51.886;17.078;2023-02-28T04:04:06;39.90;;;21.97;;
21402;SDS011;10862;51.886;17.078;2023-02-28T04:06:36;22.47;;;16.53;;
21402;SDS011;10862;51.886;17.078;2023-02-28T04:09:03;25.83;;;18.87;;
21402;SDS011;10862;51.886;17.078;2023-02-28T04:11:32;32.53;;;20.47;;
21402;SDS011;10862;51.886;17.078;2023-02-28T04:14:10;30.27;;;18.50;;
21402;SDS011;10862;51.886;17.078;2023-02-28T04:16:37;37.20;;;15.50;;
21402;SDS011;10862;51.886;17.078;2023-02-28T04:19:05;17.23;;;14.07;;
21402;SDS011;10862;51.886;17.078;2023-02-28T04:21:36;25.90;;;16.43;;
21402;SDS011;10862;51.886;17.078;2023-02-28T04:24:07;29.47;;;18.27;;
21402;SDS011;10862;51.886;17.078;2023-02-28T04:26:34;24.73;;;16.37;;
21402;SDS011;10862;51.886;17.078;2023-02-28T04:29:03;36.17;;;22.47;;
21402;SDS011;10862;51.886;17.078;2023-02-28T04:31:30;30.83;;;20.37;;
21402;SDS011;10862;51.886;17.078;2023-02-28T04:33:56;25.17;;;17.07;;
21402;SDS011;10862;51.886;17.078;2023-02-28T04:36:22;21.47;;;15.40;;
21402;SDS011;10862;51.886;17.078;2023-02-28T04:38:48;23.47;;;16.33;;
21402;SDS011;10862;51.886;17.078;2023-02-28T04:41:14;33.10;;;18.43;;
21402;SDS011;10862;51.886;17.078;2023-02-28T04:43:40;26.23;;;15.77;;
21402;SDS011;10862;51.886;17.078;2023-02-28T04:46:06;43.37;;;20.53;;
21402;SDS011;10862;51.886;17.078;2023-02-28T04:48:33;41.67;;;22.33;;
21402;SDS011;10862;51.886;17.078;2023-02-28T04:51:04;49.07;;;20.30;;
21402;SDS011;10862;51.886;17.078;2023-02-28T04:53:31;34.03;;;18.70;;
21402;SDS011;10862;51.886;17.078;2023-02-28T04:55:57;52.73;;;23.53;;
21402;SDS011;10862;51.886;17.078;2023-02-28T04:58:24;65.07;;;31.53;;
21402;SDS011;10862;51.886;17.078;2023-02-28T05:00:53;46.20;;;26.10;;
21402;SDS011;10862;51.886;17.078;2023-02-28T05:03:20;53.77;;;29.57;;
21402;SDS011;10862;51.886;17.078;2023-02-28T05:05:47;46.10;;;24.90;;
21402;SDS011;10862;51.886;17.078;2023-02-28T05:08:12;29.80;;;21.40;;
21402;SDS011;10862;51.886;17.078;2023-02-28T05:10:38;33.47;;;21.00;;
21402;SDS011;10862;51.886;17.078;2023-02-28T05:13:04;40.13;;;24.03;;
21402;SDS011;10862;51.886;17.078;2023-02-28T05:15:30;42.20;;;26.53;;
21402;SDS011;10862;51.886;17.078;2023-02-28T05:17:56;44.20;;;25.40;;
21402;SDS011;10862;51.886;17.078;2023-02-28T05:20:21;39.77;;;26.10;;
21402;SDS011;10862;51.886;17.078;2023-02-28T05:22:47;30.63;;;20.77;;
21402;SDS011;10862;51.886;17.078;2023-02-28T05:25:17;27.00;;;19.10;;
21402;SDS011;10862;51.886;17.078;2023-02-28T05:27:46;42.30;;;26.03;;
21402;SDS011;10862;51.886;17.078;2023-02-28T05:30:12;46.00;;;24.83;;
21402;SDS011;10862;51.886;17.078;2023-02-28T05:32:39;73.27;;;36.27;;
21402;SDS011;10862;51.886;17.078;2023-02-28T05:35:09;62.77;;;36.27;;
21402;SDS011;10862;51.886;17.078;2023-02-28T05:37:36;60.47;;;30.57;;
21402;SDS011;10862;51.886;17.078;2023-02-28T05:40:02;41.47;;;25.20;;
21402;SDS011;10862;51.886;17.078;2023-02-28T05:42:31;44.17;;;25.40;;
21402;SDS011;10862;51.886;17.078;2023-02-28T05:44:57;42.00;;;24.10;;
21402;SDS011;10862;51.886;17.078;2023-02-28T05:47:22;64.17;;;35.40;;
21402;SDS011;10862;51.886;17.078;2023-02-28T05:49:48;39.13;;;23.57;;
21402;SDS011;10862;51.886;17.078;2023-02-28T05:52:14;36.80;;;21.67;;
21402;SDS011;10862;51.886;17.078;2023-02-28T05:54:40;49.43;;;24.30;;
21402;SDS011;10862;51.886;17.078;2023-02-28T05:57:06;64.97;;;29.33;;
21402;SDS011;10862;51.886;17.078;2023-02-28T05:59:32;66.80;;;29.10;;
21402;SDS011;10862;51.886;17.078;2023-02-28T06:01:58;68.70;;;30.13;;
21402;SDS011;10862;51.886;17.078;2023-02-28T06:04:24;513.07;;;142.60;;
21402;SDS011;10862;51.886;17.078;2023-02-28T06:06:50;622.73;;;214.50;;
21402;SDS011;10862;51.886;17.078;2023-02-28T06:09:16;544.93;;;187.30;;
21402;SDS011;10862;51.886;17.078;2023-02-28T06:11:43;530.30;;;184.37;;
21402;SDS011;10862;51.886;17.078;2023-02-28T06:14:15;357.57;;;134.93;;
21402;SDS011;10862;51.886;17.078;2023-02-28T06:16:42;282.63;;;111.00;;
21402;SDS011;10862;51.886;17.078;2023-02-28T06:19:09;149.70;;;55.90;;
21402;SDS011;10862;51.886;17.078;2023-02-28T06:21:35;116.97;;;51.73;;
21402;SDS011;10862;51.886;17.078;2023-02-28T06:24:02;113.03;;;47.97;;
21402;SDS011;10862;51.886;17.078;2023-02-28T06:26:28;86.73;;;43.57;;
21402;SDS011;10862;51.886;17.078;2023-02-28T06:28:54;87.27;;;44.87;;
21402;SDS011;10862;51.886;17.078;2023-02-28T06:31:20;142.73;;;61.13;;
21402;SDS011;10862;51.886;17.078;2023-02-28T06:33:47;110.87;;;50.73;;
21402;SDS011;10862;51.886;17.078;2023-02-28T06:36:14;123.47;;;49.13;;
21402;SDS011;10862;51.886;17.078;2023-02-28T06:38:40;101.27;;;43.47;;
21402;SDS011;10862;51.886;17.078;2023-02-28T06:41:07;85.87;;;41.90;;
21402;SDS011;10862;51.886;17.078;2023-02-28T06:43:34;67.17;;;35.80;;
21402;SDS011;10862;51.886;17.078;2023-02-28T06:46:02;47.73;;;32.23;;
21402;SDS011;10862;51.886;17.078;2023-02-28T06:48:30;59.77;;;36.10;;
21402;SDS011;10862;51.886;17.078;2023-02-28T06:51:03;53.07;;;32.90;;
21402;SDS011;10862;51.886;17.078;2023-02-28T06:53:29;46.90;;;32.17;;
21402;SDS011;10862;51.886;17.078;2023-02-28T06:55:54;55.50;;;31.40;;
21402;SDS011;10862;51.886;17.078;2023-02-28T06:58:20;45.07;;;31.57;;
21402;SDS011;10862;51.886;17.078;2023-02-28T07:00:49;41.50;;;29.07;;
21402;SDS011;10862;51.886;17.078;2023-02-28T07:03:16;41.07;;;31.13;;
21402;SDS011;10862;51.886;17.078;2023-02-28T07:05:43;78.70;;;40.47;;
21402;SDS011;10862;51.886;17.078;2023-02-28T07:08:09;53.60;;;29.07;;
21402;SDS011;10862;51.886;17.078;2023-02-28T07:10:38;50.90;;;30.10;;
21402;SDS011;10862;51.886;17.078;2023-02-28T07:13:04;57.97;;;31.40;;
21402;SDS011;10862;51.886;17.078;2023-02-28T07:15:31;71.50;;;34.83;;
21402;SDS011;10862;51.886;17.078;2023-02-28T07:17:57;178.37;;;64.57;;
21402;SDS011;10862;51.886;17.078;2023-02-28T07:20:23;167.87;;;59.63;;
21402;SDS011;10862;51.886;17.078;2023-02-28T07:22:49;67.17;;;35.57;;
21402;SDS011;10862;51.886;17.078;2023-02-28T07:25:24;59.80;;;34.33;;
21402;SDS011;10862;51.886;17.078;2023-02-28T07:27:51;51.47;;;30.63;;
21402;SDS011;10862;51.886;17.078;2023-02-28T07:30:17;47.63;;;29.80;;
21402;SDS011;10862;51.886;17.078;2023-02-28T07:32:43;138.33;;;53.70;;
21402;SDS011;10862;51.886;17.078;2023-02-28T07:35:09;66.43;;;38.97;;
21402;SDS011;10862;51.886;17.078;2023-02-28T07:37:35;53.07;;;29.53;;
21402;SDS011;10862;51.886;17.078;2023-02-28T07:40:04;69.07;;;31.23;;
21402;SDS011;10862;51.886;17.078;2023-02-28T07:42:33;64.77;;;29.60;;
21402;SDS011;10862;51.886;17.078;2023-02-28T07:44:59;57.87;;;28.97;;
21402;SDS011;10862;51.886;17.078;2023-02-28T07:47:25;68.97;;;30.63;;
21402;SDS011;10862;51.886;17.078;2023-02-28T07:49:51;63.27;;;32.80;;
21402;SDS011;10862;51.886;17.078;2023-02-28T07:52:17;80.73;;;32.67;;
21402;SDS011;10862;51.886;17.078;2023-02-28T07:54:43;124.40;;;48.90;;
21402;SDS011;10862;51.886;17.078;2023-02-28T07:57:09;65.00;;;33.50;;
21402;SDS011;10862;51.886;17.078;2023-02-28T07:59:34;68.50;;;31.83;;
21402;SDS011;10862;51.886;17.078;2023-02-28T08:02:00;67.40;;;29.97;;
21402;SDS011;10862;51.886;17.078;2023-02-28T08:04:26;58.37;;;29.40;;
21402;SDS011;10862;51.886;17.078;2023-02-28T08:06:51;54.87;;;29.30;;
21402;SDS011;10862;51.886;17.078;2023-02-28T08:09:18;54.43;;;27.87;;
21402;SDS011;10862;51.886;17.078;2023-02-28T08:11:44;51.20;;;26.60;;
21402;SDS011;10862;51.886;17.078;2023-02-28T08:14:10;39.50;;;22.93;;
21402;SDS011;10862;51.886;17.078;2023-02-28T08:16:35;46.33;;;27.30;;
21402;SDS011;10862;51.886;17.078;2023-02-28T08:19:02;52.97;;;27.13;;
21402;SDS011;10862;51.886;17.078;2023-02-28T08:21:27;29.63;;;23.73;;
21402;SDS011;10862;51.886;17.078;2023-02-28T08:23:53;52.90;;;33.43;;
21402;SDS011;10862;51.886;17.078;2023-02-28T08:26:19;51.83;;;30.23;;
21402;SDS011;10862;51.886;17.078;2023-02-28T08:28:45;60.03;;;36.07;;
21402;SDS011;10862;51.886;17.078;2023-02-28T08:31:12;84.53;;;38.30;;
21402;SDS011;10862;51.886;17.078;2023-02-28T08:33:40;52.40;;;34.83;;
21402;SDS011;10862;51.886;17.078;2023-02-28T08:36:07;57.03;;;34.77;;
21402;SDS011;10862;51.886;17.078;2023-02-28T08:38:34;55.30;;;31.73;;
21402;SDS011;10862;51.886;17.078;2023-02-28T08:41:01;41.87;;;32.50;;
21402;SDS011;10862;51.886;17.078;2023-02-28T08:43:31;48.57;;;31.43;;
21402;SDS011;10862;51.886;17.078;2023-02-28T08:45:57;55.23;;;34.10;;
21402;SDS011;10862;51.886;17.078;2023-02-28T08:48:23;51.90;;;31.37;;
21402;SDS011;10862;51.886;17.078;2023-02-28T08:51:00;46.00;;;33.47;;
21402;SDS011;10862;51.886;17.078;2023-02-28T08:53:29;47.20;;;34.07;;
21402;SDS011;10862;51.886;17.078;2023-02-28T08:55:55;48.30;;;32.57;;
21402;SDS011;10862;51.886;17.078;2023-02-28T08:58:44;41.83;;;33.20;;
21402;SDS011;10862;51.886;17.078;2023-02-28T09:03:41;58.67;;;39.70;;
21402;SDS011;10862;51.886;17.078;2023-02-28T09:06:08;46.63;;;38.23;;
21402;SDS011;10862;51.886;17.078;2023-02-28T09:08:35;50.97;;;35.80;;
21402;SDS011;10862;51.886;17.078;2023-02-28T09:11:01;51.63;;;36.20;;
21402;SDS011;10862;51.886;17.078;2023-02-28T09:13:28;40.23;;;33.80;;
21402;SDS011;10862;51.886;17.078;2023-02-28T09:15:56;39.83;;;26.47;;
21402;SDS011;10862;51.886;17.078;2023-02-28T09:18:23;34.50;;;29.03;;
21402;SDS011;10862;51.886;17.078;2023-02-28T09:20:49;33.37;;;28.73;;
21402;SDS011;10862;51.886;17.078;2023-02-28T09:23:15;35.93;;;28.80;;
21402;SDS011;10862;51.886;17.078;2023-02-28T09:25:59;33.50;;;28.33;;
21402;SDS011;10862;51.886;17.078;2023-02-28T09:28:25;31.50;;;26.13;;
21402;SDS011;10862;51.886;17.078;2023-02-28T09:30:52;33.70;;;27.37;;
21402;SDS011;10862;51.886;17.078;2023-02-28T09:33:19;29.90;;;23.00;;
21402;SDS011;10862;51.886;17.078;2023-02-28T09:35:46;35.97;;;27.37;;
21402;SDS011;10862;51.886;17.078;2023-02-28T09:38:15;27.63;;;22.30;;
21402;SDS011;10862;51.886;17.078;2023-02-28T09:41:01;23.40;;;20.03;;
21402;SDS011;10862;51.886;17.078;2023-02-28T09:43:29;34.73;;;23.90;;
21402;SDS011;10862;51.886;17.078;2023-02-28T09:46:08;22.87;;;20.40;;
21402;SDS011;10862;51.886;17.078;2023-02-28T09:48:47;24.33;;;20.47;;
21402;SDS011;10862;51.886;17.078;2023-02-28T09:53:46;24.57;;;21.07;;
21402;SDS011;10862;51.886;17.078;2023-02-28T09:56:17;24.37;;;21.77;;
21402;SDS011;10862;51.886;17.078;2023-02-28T10:01:42;27.77;;;24.80;;
21402;SDS011;10862;51.886;17.078;2023-02-28T10:10:14;28.03;;;25.27;;
21402;SDS011;10862;51.886;17.078;2023-02-28T10:12:47;31.73;;;28.33;;
21402;SDS011;10862;51.886;17.078;2023-02-28T10:15:18;30.27;;;27.07;;
21402;SDS011;10862;51.886;17.078;2023-02-28T10:17:47;40.10;;;34.33;;
21402;SDS011;10862;51.886;17.078;2023-02-28T10:20:19;28.57;;;25.73;;
21402;SDS011;10862;51.886;17.078;2023-02-28T10:22:56;30.97;;;27.97;;
21402;SDS011;10862;51.886;17.078;2023-02-28T10:25:36;33.30;;;26.07;;
21402;SDS011;10862;51.886;17.078;2023-02-28T10:30:49;48.60;;;31.70;;
21402;SDS011;10862;51.886;17.078;2023-02-28T10:35:44;28.20;;;25.20;;
21402;SDS011;10862;51.886;17.078;2023-02-28T10:38:14;27.37;;;24.80;;
21402;SDS011;10862;51.886;17.078;2023-02-28T10:40:44;33.43;;;28.13;;
21402;SDS011;10862;51.886;17.078;2023-02-28T10:45:38;28.03;;;25.47;;
21402;SDS011;10862;51.886;17.078;2023-02-28T10:56:34;27.13;;;24.47;;
21402;SDS011;10862;51.886;17.078;2023-02-28T11:04:03;24.37;;;22.37;;
21402;SDS011;10862;51.886;17.078;2023-02-28T11:06:34;29.83;;;26.93;;
21402;SDS011;10862;51.886;17.078;2023-02-28T11:09:02;28.80;;;26.10;;
21402;SDS011;10862;51.886;17.078;2023-02-28T11:11:40;29.77;;;27.10;;
21402;SDS011;10862;51.886;17.078;2023-02-28T11:14:22;27.13;;;24.97;;
21402;SDS011;10862;51.886;17.078;2023-02-28T11:16:51;25.90;;;23.70;;
21402;SDS011;10862;51.886;17.078;2023-02-28T11:19:20;38.17;;;31.77;;
21402;SDS011;10862;51.886;17.078;2023-02-28T11:22:00;31.90;;;28.77;;
21402;SDS011;10862;51.886;17.078;2023-02-28T11:24:28;27.90;;;25.57;;
21402;SDS011;10862;51.886;17.078;2023-02-28T11:27:05;28.43;;;25.83;;
21402;SDS011;10862;51.886;17.078;2023-02-28T11:29:31;29.03;;;26.50;;
21402;SDS011;10862;51.886;17.078;2023-02-28T11:35:17;28.53;;;26.10;;
21402;SDS011;10862;51.886;17.078;2023-02-28T11:37:55;29.67;;;26.83;;
21402;SDS011;10862;51.886;17.078;2023-02-28T11:40:30;31.03;;;28.43;;
21402;SDS011;10862;51.886;17.078;2023-02-28T11:43:08;28.57;;;26.27;;
21402;SDS011;10862;51.886;17.078;2023-02-28T11:46:06;29.93;;;27.27;;
21402;SDS011;10862;51.886;17.078;2023-02-28T11:49:02;24.40;;;22.30;;
21402;SDS011;10862;51.886;17.078;2023-02-28T11:51:45;28.80;;;26.00;;
21402;SDS011;10862;51.886;17.078;2023-02-28T11:54:29;29.33;;;26.43;;
21402;SDS011;10862;51.886;17.078;2023-02-28T11:57:47;25.57;;;23.20;;
21402;SDS011;10862;51.886;17.078;2023-02-28T11:59:59;29.07;;;22.20;;
21402;SDS011;10862;51.886;17.078;2023-02-28T12:10:25;24.17;;;21.30;;
21402;SDS011;10862;51.886;17.078;2023-02-28T12:15:47;25.63;;;22.33;;
21402;SDS011;10862;51.886;17.078;2023-02-28T12:26:38;21.90;;;19.70;;
21402;SDS011;10862;51.886;17.078;2023-02-28T12:31:44;25.50;;;23.33;;
21402;SDS011;10862;51.886;17.078;2023-02-28T12:34:17;31.50;;;28.30;;
21402;SDS011;10862;51.886;17.078;2023-02-28T12:36:48;26.60;;;24.07;;
21402;SDS011;10862;51.886;17.078;2023-02-28T12:42:25;31.77;;;28.30;;
21402;SDS011;10862;51.886;17.078;2023-02-28T12:44:52;24.33;;;21.93;;
21402;SDS011;10862;51.886;17.078;2023-02-28T12:47:29;24.67;;;21.80;;
21402;SDS011;10862;51.886;17.078;2023-02-28T12:55:56;23.83;;;21.60;;
21402;SDS011;10862;51.886;17.078;2023-02-28T12:58:39;21.70;;;19.70;;
21402;SDS011;10862;51.886;17.078;2023-02-28T13:06:40;24.63;;;22.60;;
21402;SDS011;10862;51.886;17.078;2023-02-28T13:09:18;24.57;;;22.30;;
21402;SDS011;10862;51.886;17.078;2023-02-28T13:11:45;25.47;;;22.83;;
21402;SDS011;10862;51.886;17.078;2023-02-28T13:16:52;24.10;;;21.70;;
21402;SDS011;10862;51.886;17.078;2023-02-28T13:19:26;151.63;;;48.87;;
21402;SDS011;10862;51.886;17.078;2023-02-28T13:21:54;65.77;;;31.40;;
21402;SDS011;10862;51.886;17.078;2023-02-28T13:24:38;24.83;;;22.43;;
21402;SDS011;10862;51.886;17.078;2023-02-28T13:27:21;25.57;;;22.77;;
21402;SDS011;10862;51.886;17.078;2023-02-28T13:29:57;23.23;;;21.13;;
21402;SDS011;10862;51.886;17.078;2023-02-28T13:32:33;24.07;;;21.97;;
21402;SDS011;10862;51.886;17.078;2023-02-28T13:40:27;28.60;;;23.77;;
21402;SDS011;10862;51.886;17.078;2023-02-28T13:43:06;36.23;;;26.10;;
21402;SDS011;10862;51.886;17.078;2023-02-28T13:45:34;27.10;;;24.40;;
21402;SDS011;10862;51.886;17.078;2023-02-28T13:48:16;25.83;;;23.30;;
21402;SDS011;10862;51.886;17.078;2023-02-28T13:50:44;35.83;;;28.10;;
21402;SDS011;10862;51.886;17.078;2023-02-28T14:01:43;91.30;;;54.30;;
21402;SDS011;10862;51.886;17.078;2023-02-28T14:06:57;62.00;;;28.07;;
21402;SDS011;10862;51.886;17.078;2023-02-28T14:09:40;126.07;;;53.93;;
21402;SDS011;10862;51.886;17.078;2023-02-28T14:17:59;73.17;;;42.60;;
21402;SDS011;10862;51.886;17.078;2023-02-28T14:20:27;150.17;;;71.43;;
21402;SDS011;10862;51.886;17.078;2023-02-28T14:31:31;253.13;;;146.83;;
21402;SDS011;10862;51.886;17.078;2023-02-28T14:36:35;35.13;;;26.93;;
21402;SDS011;10862;51.886;17.078;2023-02-28T14:39:06;70.13;;;37.97;;
21402;SDS011;10862;51.886;17.078;2023-02-28T14:41:38;26.10;;;20.63;;
21402;SDS011;10862;51.886;17.078;2023-02-28T14:44:23;43.57;;;30.87;;
21402;SDS011;10862;51.886;17.078;2023-02-28T14:46:53;72.90;;;44.20;;
21402;SDS011;10862;51.886;17.078;2023-02-28T14:49:29;84.60;;;69.17;;
21402;SDS011;10862;51.886;17.078;2023-02-28T14:52:12;181.87;;;99.67;;
21402;SDS011;10862;51.886;17.078;2023-02-28T14:57:31;121.17;;;54.50;;
21402;SDS011;10862;51.886;17.078;2023-02-28T15:00:15;35.67;;;31.17;;
21402;SDS011;10862;51.886;17.078;2023-02-28T15:02:46;33.60;;;30.03;;
21402;SDS011;10862;51.886;17.078;2023-02-28T15:07:37;307.97;;;86.77;;
21402;SDS011;10862;51.886;17.078;2023-02-28T15:10:13;77.50;;;45.60;;
21402;SDS011;10862;51.886;17.078;2023-02-28T15:12:49;158.60;;;61.57;;
21402;SDS011;10862;51.886;17.078;2023-02-28T15:15:19;67.80;;;36.33;;
21402;SDS011;10862;51.886;17.078;2023-02-28T15:17:50;192.27;;;69.37;;
21402;SDS011;10862;51.886;17.078;2023-02-28T15:20:19;184.93;;;72.97;;
21402;SDS011;10862;51.886;17.078;2023-02-28T15:22:46;630.90;;;213.83;;
21402;SDS011;10862;51.886;17.078;2023-02-28T15:25:15;336.73;;;119.23;;
21402;SDS011;10862;51.886;17.078;2023-02-28T15:27:46;67.37;;;38.50;;
21402;SDS011;10862;51.886;17.078;2023-02-28T15:30:17;41.63;;;29.63;;
21402;SDS011;10862;51.886;17.078;2023-02-28T15:32:43;298.20;;;137.00;;
21402;SDS011;10862;51.886;17.078;2023-02-28T15:35:20;188.97;;;63.20;;
21402;SDS011;10862;51.886;17.078;2023-02-28T15:37:54;615.80;;;222.90;;
21402;SDS011;10862;51.886;17.078;2023-02-28T15:40:31;409.80;;;151.83;;
21402;SDS011;10862;51.886;17.078;2023-02-28T15:43:06;515.00;;;232.57;;
21402;SDS011;10862;51.886;17.078;2023-02-28T15:45:41;112.03;;;61.43;;
21402;SDS011;10862;51.886;17.078;2023-02-28T15:50:46;66.17;;;36.03;;
21402;SDS011;10862;51.886;17.078;2023-02-28T15:53:15;165.10;;;67.20;;
21402;SDS011;10862;51.886;17.078;2023-02-28T15:55:44;87.53;;;39.27;;
21402;SDS011;10862;51.886;17.078;2023-02-28T15:58:16;61.00;;;34.87;;
21402;SDS011;10862;51.886;17.078;2023-02-28T16:00:44;50.87;;;32.97;;
21402;SDS011;10862;51.886;17.078;2023-02-28T16:03:27;44.57;;;29.60;;
21402;SDS011;10862;51.886;17.078;2023-02-28T16:08:46;60.60;;;36.10;;
21402;SDS011;10862;51.886;17.078;2023-02-28T16:11:13;103.63;;;55.67;;
21402;SDS011;10862;51.886;17.078;2023-02-28T16:13:40;94.77;;;47.17;;
21402;SDS011;10862;51.886;17.078;2023-02-28T16:16:06;108.63;;;52.27;;
21402;SDS011;10862;51.886;17.078;2023-02-28T16:18:32;224.73;;;67.63;;
21402;SDS011;10862;51.886;17.078;2023-02-28T16:20:57;397.97;;;119.77;;
21402;SDS011;10862;51.886;17.078;2023-02-28T16:23:23;404.37;;;130.43;;
21402;SDS011;10862;51.886;17.078;2023-02-28T16:25:49;241.37;;;84.67;;
21402;SDS011;10862;51.886;17.078;2023-02-28T16:28:19;169.17;;;61.47;;
21402;SDS011;10862;51.886;17.078;2023-02-28T16:30:53;72.97;;;42.83;;
21402;SDS011;10862;51.886;17.078;2023-02-28T16:33:19;112.70;;;48.63;;
21402;SDS011;10862;51.886;17.078;2023-02-28T16:35:45;89.13;;;44.57;;
21402;SDS011;10862;51.886;17.078;2023-02-28T16:38:10;67.00;;;36.50;;
21402;SDS011;10862;51.886;17.078;2023-02-28T16:40:36;63.37;;;34.73;;
21402;SDS011;10862;51.886;17.078;2023-02-28T16:43:05;68.93;;;34.97;;
21402;SDS011;10862;51.886;17.078;2023-02-28T16:45:34;53.63;;;30.50;;
21402;SDS011;10862;51.886;17.078;2023-02-28T16:48:00;82.17;;;42.20;;
21402;SDS011;10862;51.886;17.078;2023-02-28T16:50:28;168.07;;;56.50;;
21402;SDS011;10862;51.886;17.078;2023-02-28T16:52:55;101.87;;;40.70;;
21402;SDS011;10862;51.886;17.078;2023-02-28T16:55:22;55.30;;;27.40;;
21402;SDS011;10862;51.886;17.078;2023-02-28T16:57:53;100.90;;;37.20;;